createdAt,value
2018-07-08T00:01:59.918Z,75.30
2018-07-08T00:04:29.731Z,75.00
2018-07-08T00:06:58.993Z,75.20
2018-07-08T00:09:27.977Z,75.50
2018-07-08T00:11:57.005Z,75.80
2018-07-08T00:14:28.210Z,76.60
2018-07-08T00:16:57.286Z,76.20
2018-07-08T00:19:26.368Z,76.50
2018-07-08T00:21:56.757Z,76.80
2018-07-08T00:24:25.755Z,77.10
2018-07-08T00:26:55.742Z,77.30
2018-07-08T00:29:24.934Z,77.50
2018-07-08T00:31:53.993Z,77.90
2018-07-08T00:34:22.978Z,78.40
2018-07-08T00:36:52.022Z,78.20
2018-07-08T00:39:21.024Z,78.30
2018-07-08T00:41:50.054Z,78.50
2018-07-08T00:44:19.051Z,78.80
2018-07-08T00:46:49.255Z,77.80
2018-07-08T00:49:18.262Z,77.60
2018-07-08T00:51:47.336Z,78.00
2018-07-08T00:54:16.352Z,78.50
2018-07-08T00:56:46.536Z,78.80
2018-07-08T00:59:15.590Z,79.40
2018-07-08T01:01:44.938Z,79.80
2018-07-08T01:04:13.896Z,79.40
2018-07-08T01:06:44.215Z,79.40
2018-07-08T01:09:13.310Z,79.20
2018-07-08T01:11:42.286Z,79.60
2018-07-08T01:14:11.353Z,79.00
2018-07-08T01:16:40.351Z,78.30
2018-07-08T01:19:09.481Z,78.60
2018-07-08T01:21:39.038Z,79.30
2018-07-08T01:24:08.466Z,80.10
2018-07-08T01:26:38.528Z,80.50
2018-07-08T01:29:07.538Z,80.70
2018-07-08T01:31:37.446Z,81.00
2018-07-08T01:34:07.026Z,81.30
2018-07-08T01:36:37.811Z,81.70
2018-07-08T01:39:07.960Z,82.10
2018-07-08T01:41:37.010Z,81.50
2018-07-08T01:44:06.179Z,81.90
2018-07-08T01:46:35.266Z,82.00
2018-07-08T01:49:04.315Z,82.50
2018-07-08T01:51:33.352Z,82.90
2018-07-08T01:54:02.405Z,82.60
2018-07-08T01:56:34.163Z,83.30
2018-07-08T01:59:04.738Z,83.50
2018-07-08T02:01:34.069Z,83.70
2018-07-08T02:04:03.084Z,84.00
2018-07-08T02:06:32.062Z,85.10
2018-07-08T02:09:04.559Z,84.90
2018-07-08T02:11:33.627Z,83.80
2018-07-08T02:14:02.837Z,83.90
2018-07-08T02:16:31.866Z,84.60
2018-07-08T02:19:01.834Z,85.50
2018-07-08T02:21:30.846Z,85.50
2018-07-08T02:24:00.218Z,85.80
2018-07-08T02:26:30.306Z,85.90
2018-07-08T02:28:59.778Z,85.90
2018-07-08T02:31:31.433Z,86.80
2018-07-08T02:34:00.511Z,86.80
2018-07-08T02:36:29.503Z,87.40
2018-07-08T02:38:58.938Z,87.40
2018-07-08T02:41:27.932Z,87.20
2018-07-08T02:43:56.930Z,87.10
2018-07-08T02:46:25.936Z,87.30
2018-07-08T02:48:55.025Z,87.30
2018-07-08T02:51:25.383Z,87.50
2018-07-08T02:53:54.391Z,87.90
2018-07-08T02:56:23.393Z,88.10
2018-07-08T02:58:52.417Z,88.10
2018-07-08T03:01:21.785Z,88.20
2018-07-08T03:03:51.563Z,88.50
2018-07-08T03:06:21.008Z,88.10
2018-07-08T03:08:50.067Z,88.10
2018-07-08T03:11:20.206Z,88.50
2018-07-08T03:13:49.238Z,88.80
2018-07-08T03:16:18.243Z,89.80
2018-07-08T03:18:47.264Z,90.40
2018-07-08T03:21:17.170Z,90.60
2018-07-08T03:23:47.017Z,90.70
2018-07-08T03:26:16.439Z,90.90
2018-07-08T03:28:45.986Z,90.80
2018-07-08T03:31:15.038Z,90.50
2018-07-08T03:33:46.083Z,90.50
2018-07-08T03:36:15.140Z,90.40
2018-07-08T03:38:44.185Z,90.70
2018-07-08T03:41:13.191Z,90.70
2018-07-08T03:43:42.237Z,90.90
2018-07-08T03:46:11.264Z,91.10
2018-07-08T03:48:40.278Z,91.20
2018-07-08T03:51:09.305Z,91.20
2018-07-08T03:53:38.335Z,91.10
2018-07-08T03:56:07.995Z,90.90
2018-07-08T03:58:37.056Z,90.80
2018-07-08T04:01:06.072Z,91.00
2018-07-08T04:03:35.938Z,91.40
2018-07-08T04:06:04.942Z,91.30
2018-07-08T04:08:33.970Z,91.20
2018-07-08T04:11:02.988Z,91.10
2018-07-08T04:13:32.057Z,91.20
2018-07-08T04:16:01.509Z,91.20
2018-07-08T04:18:30.947Z,91.00
2018-07-08T04:20:59.961Z,91.00
2018-07-08T04:23:29.797Z,91.30
2018-07-08T04:25:58.820Z,91.30
2018-07-08T04:28:27.930Z,91.40
2018-07-08T04:30:56.978Z,91.50
2018-07-08T04:33:26.044Z,91.40
2018-07-08T04:35:55.075Z,91.40
2018-07-08T04:38:24.076Z,91.40
2018-07-08T04:40:53.109Z,91.40
2018-07-08T04:43:22.239Z,91.30
2018-07-08T04:45:51.270Z,91.30
2018-07-08T04:48:21.057Z,91.30
2018-07-08T04:50:50.091Z,91.40
2018-07-08T04:53:19.113Z,91.30
2018-07-08T04:55:48.189Z,91.30
2018-07-08T04:58:17.224Z,91.30
2018-07-08T05:00:46.238Z,91.30
2018-07-08T05:03:16.024Z,91.40
2018-07-08T05:05:46.087Z,91.40
2018-07-08T05:08:15.064Z,91.50
2018-07-08T05:11:02.100Z,91.50
2018-07-08T05:13:32.238Z,91.50
2018-07-08T05:16:01.246Z,91.30
2018-07-08T05:18:30.757Z,91.30
2018-07-08T05:21:00.750Z,91.40
2018-07-08T05:23:29.798Z,91.10
2018-07-08T05:25:58.817Z,91.40
2018-07-08T05:28:27.804Z,91.20
2018-07-08T05:30:57.241Z,91.10
2018-07-08T05:33:26.441Z,90.80
2018-07-08T05:35:59.030Z,90.90
2018-07-08T05:38:28.070Z,90.80
2018-07-08T05:40:57.706Z,90.80
2018-07-08T05:43:26.799Z,90.70
2018-07-08T05:45:59.516Z,90.50
2018-07-08T05:48:29.025Z,90.30
2018-07-08T05:50:59.758Z,90.20
2018-07-08T05:53:28.777Z,90.00
2018-07-08T05:55:59.591Z,89.80
2018-07-08T05:58:28.590Z,89.60
2018-07-08T06:00:57.663Z,89.10
2018-07-08T06:03:26.692Z,88.80
2018-07-08T06:05:56.075Z,88.90
2018-07-08T06:08:25.100Z,88.80
2018-07-08T06:10:54.370Z,89.00
2018-07-08T06:13:23.367Z,89.00
2018-07-08T06:15:53.023Z,89.60
2018-07-08T06:18:22.087Z,88.80
2018-07-08T06:20:51.125Z,88.20
2018-07-08T06:23:21.064Z,87.00
2018-07-08T06:25:50.088Z,87.10
2018-07-08T06:28:19.086Z,86.60
2018-07-08T06:30:48.978Z,86.50
2018-07-08T06:33:17.949Z,86.90
2018-07-08T06:35:46.975Z,86.90
2018-07-08T06:38:16.035Z,87.10
2018-07-08T06:40:45.039Z,87.10
2018-07-08T06:43:14.038Z,86.90
2018-07-08T06:45:43.064Z,86.20
2018-07-08T06:48:12.108Z,86.40
2018-07-08T06:50:41.140Z,86.50
2018-07-08T06:55:40.024Z,86.10
2018-07-08T06:58:09.010Z,85.50
2018-07-08T07:00:38.819Z,85.20
2018-07-08T07:03:08.928Z,85.30
2018-07-08T07:05:38.883Z,84.60
2018-07-08T07:08:07.938Z,84.30
2018-07-08T07:10:37.008Z,83.40
2018-07-08T07:13:06.484Z,83.70
2018-07-08T07:15:36.242Z,83.70
2018-07-08T07:18:05.289Z,82.60
2018-07-08T07:20:34.323Z,82.80
2018-07-08T07:23:03.402Z,82.80
2018-07-08T07:43:03.713Z,74.90
2018-07-08T07:45:32.725Z,75.70
2018-07-08T07:48:01.829Z,74.10
2018-07-08T07:50:30.849Z,72.10
2018-07-08T07:52:59.915Z,70.50
2018-07-08T07:55:28.983Z,68.10
2018-07-08T07:57:57.957Z,62.80
2018-07-08T08:00:27.169Z,57.40
2018-07-08T08:02:57.858Z,55.00
2018-07-08T08:05:26.864Z,48.90
2018-07-08T08:07:55.847Z,43.90
2018-07-08T08:10:24.801Z,40.50
2018-07-08T08:12:55.361Z,37.10
2018-07-08T08:15:26.605Z,36.40
2018-07-08T08:17:55.647Z,35.10
2018-07-08T08:22:54.813Z,34.30
2018-07-08T08:25:24.621Z,35.80
2018-07-08T08:27:55.375Z,35.00
2018-07-08T08:30:24.330Z,33.70
2018-07-08T08:32:53.327Z,33.70
2018-07-08T08:35:22.379Z,33.00
2018-07-08T08:37:57.246Z,32.90
2018-07-08T08:40:27.554Z,35.00
2018-07-08T08:42:56.699Z,37.30
2018-07-08T08:45:27.089Z,40.50
2018-07-08T08:47:56.086Z,43.10
2018-07-08T08:50:25.077Z,44.20
2018-07-08T08:52:54.094Z,44.70
2018-07-08T08:57:52.834Z,47.00
2018-07-08T09:00:21.831Z,48.00
2018-07-08T09:02:51.493Z,49.20
2018-07-08T09:05:20.860Z,50.40
2018-07-08T09:07:49.876Z,51.00
2018-07-08T09:10:19.803Z,51.00
2018-07-08T09:12:49.856Z,50.40
2018-07-08T09:15:21.684Z,50.60
2018-07-08T09:17:50.832Z,50.80
2018-07-08T09:20:20.055Z,51.20
2018-07-08T09:22:49.300Z,50.60
2018-07-08T09:25:18.531Z,51.60
2018-07-08T09:27:47.731Z,52.40
2018-07-08T09:30:16.865Z,51.90
2018-07-08T09:32:46.097Z,52.20
2018-07-08T09:35:15.287Z,52.20
2018-07-08T09:37:44.493Z,52.80
2018-07-08T09:40:13.646Z,52.40
2018-07-08T09:42:42.957Z,51.20
2018-07-08T09:45:12.138Z,50.40
2018-07-08T09:47:41.341Z,50.70
2018-07-08T09:50:10.503Z,49.40
2018-07-08T09:52:39.761Z,47.50
2018-07-08T09:55:08.872Z,45.40
2018-07-08T09:57:38.082Z,39.80
2018-07-08T10:00:07.737Z,39.50
2018-07-08T10:02:36.924Z,40.40
2018-07-08T10:05:06.124Z,41.50
2018-07-08T10:07:35.265Z,42.40
2018-07-08T10:10:04.535Z,41.90
2018-07-08T10:12:33.716Z,41.00
2018-07-08T10:15:02.892Z,42.00
2018-07-08T10:17:32.195Z,42.00
2018-07-08T10:20:01.292Z,44.10
2018-07-08T10:22:30.278Z,45.10
2018-07-08T10:25:00.118Z,44.90
2018-07-08T10:28:39.149Z,46.10
2018-07-08T10:31:13.679Z,46.50
2018-07-08T10:33:55.081Z,45.80
2018-07-08T10:36:24.207Z,44.90
2018-07-08T10:38:53.218Z,41.90
2018-07-08T10:41:22.611Z,37.20
2018-07-08T10:46:22.659Z,37.30
2018-07-08T10:48:52.210Z,40.30
2018-07-08T10:51:21.195Z,43.10
2018-07-08T10:56:21.596Z,45.30
2018-07-08T10:58:50.601Z,46.30
2018-07-08T11:01:20.137Z,46.40
2018-07-08T11:03:50.095Z,47.20
2018-07-08T11:06:20.671Z,48.10
2018-07-08T11:08:49.689Z,48.60
2018-07-08T11:11:19.783Z,48.50
2018-07-08T11:13:50.964Z,48.70
2018-07-08T11:16:19.988Z,48.40
2018-07-08T11:18:49.800Z,48.60
2018-07-08T11:21:19.490Z,49.60
2018-07-08T11:23:48.514Z,50.40
2018-07-08T11:26:18.167Z,50.60
2018-07-08T11:28:47.164Z,51.20
2018-07-08T11:31:16.166Z,51.60
2018-07-08T11:33:45.666Z,51.50
2018-07-08T11:36:14.774Z,51.50
2018-07-08T11:38:43.741Z,51.20
2018-07-08T11:41:12.756Z,51.60
2018-07-08T11:43:42.152Z,51.30
2018-07-08T11:46:11.797Z,51.00
2018-07-08T11:48:40.837Z,52.20
2018-07-08T11:51:09.911Z,52.10
2018-07-08T11:53:39.513Z,51.90
2018-07-08T11:56:08.522Z,52.40
2018-07-08T11:58:37.507Z,52.50
2018-07-08T12:01:06.599Z,52.40
2018-07-08T12:03:35.582Z,52.00
2018-07-08T12:06:04.595Z,51.60
2018-07-08T12:08:34.334Z,51.70
2018-07-08T12:11:03.398Z,52.10
2018-07-08T12:13:33.595Z,51.90
2018-07-08T12:16:02.681Z,52.50
2018-07-08T12:18:32.050Z,51.30
2018-07-08T12:21:01.041Z,51.20
2018-07-08T12:23:32.715Z,50.90
2018-07-08T12:26:01.791Z,50.80
2018-07-08T12:28:32.003Z,51.60
2018-07-08T12:31:01.132Z,52.20
2018-07-08T12:33:30.114Z,52.20
2018-07-08T12:35:59.134Z,52.70
2018-07-08T12:38:28.166Z,53.10
2018-07-08T12:40:57.186Z,51.50
2018-07-08T12:43:27.513Z,51.40
2018-07-08T12:45:56.514Z,51.60
2018-07-08T12:48:25.584Z,50.80
2018-07-08T12:50:56.522Z,51.40
2018-07-08T12:53:25.537Z,51.20
2018-07-08T12:55:55.349Z,50.90
2018-07-08T12:58:24.407Z,51.10
2018-07-08T13:00:53.406Z,50.50
2018-07-08T13:03:23.195Z,51.20
2018-07-08T13:05:52.215Z,49.30
2018-07-08T13:08:21.219Z,50.00
2018-07-08T13:10:50.218Z,50.90
2018-07-08T13:13:19.764Z,50.90
2018-07-08T13:15:48.840Z,50.80
2018-07-08T13:18:19.913Z,50.70
2018-07-08T13:20:48.918Z,50.60
2018-07-08T13:23:18.451Z,49.90
2018-07-08T13:25:48.602Z,50.10
2018-07-08T13:28:17.612Z,50.80
2018-07-08T13:30:47.081Z,50.50
2018-07-08T13:33:16.973Z,50.80
2018-07-08T13:35:46.022Z,50.90
2018-07-08T13:38:15.028Z,50.20
2018-07-08T13:40:44.050Z,49.60
2018-07-08T13:43:14.134Z,49.70
2018-07-08T13:45:43.097Z,49.80
2018-07-08T13:48:12.087Z,50.10
2018-07-08T13:50:41.432Z,50.50
2018-07-08T13:53:10.823Z,51.10
2018-07-08T13:55:39.897Z,51.40
2018-07-08T13:58:08.896Z,51.50
2018-07-08T14:00:38.289Z,51.80
2018-07-08T14:03:07.304Z,51.70
2018-07-08T14:05:36.761Z,51.90
2018-07-08T14:08:06.087Z,51.30
2018-07-08T14:10:36.251Z,51.90
2018-07-08T14:13:06.171Z,51.40
2018-07-08T14:15:35.225Z,51.60
2018-07-08T14:18:04.276Z,51.30
2018-07-08T14:20:33.309Z,51.00
2018-07-08T14:23:02.331Z,51.10
2018-07-08T14:25:31.311Z,51.60
2018-07-08T14:28:00.351Z,51.60
2018-07-08T14:30:29.926Z,51.40
2018-07-08T14:33:00.898Z,50.20
2018-07-08T14:35:29.856Z,50.10
2018-07-08T14:37:58.875Z,49.90
2018-07-08T14:40:27.926Z,49.90
2018-07-08T14:42:56.937Z,50.70
2018-07-08T14:45:25.907Z,50.90
2018-07-08T14:47:54.927Z,50.90
2018-07-08T14:50:23.963Z,50.60
2018-07-08T14:52:54.300Z,50.40
2018-07-08T14:55:23.363Z,50.20
2018-07-08T14:57:52.831Z,50.80
2018-07-08T15:00:22.488Z,50.00
2018-07-08T15:02:52.479Z,49.70
2018-07-08T15:05:21.446Z,50.10
2018-07-08T15:07:50.766Z,50.20
2018-07-08T15:10:20.917Z,50.60
2018-07-08T15:12:51.546Z,50.40
2018-07-08T15:15:23.229Z,50.40
2018-07-08T15:17:52.702Z,49.60
2018-07-08T15:20:21.761Z,50.40
2018-07-08T15:22:50.796Z,50.50
2018-07-08T15:25:19.787Z,49.90
2018-07-08T15:27:49.408Z,49.50
2018-07-08T15:30:19.025Z,49.80
2018-07-08T15:32:51.983Z,49.70
2018-07-08T15:35:21.495Z,50.20
2018-07-08T15:37:54.363Z,50.10
2018-07-08T15:40:25.097Z,50.00
2018-07-08T15:42:54.132Z,49.70
2018-07-08T15:45:23.124Z,49.90
2018-07-08T15:47:52.097Z,49.50
2018-07-08T15:50:21.618Z,49.30
2018-07-08T15:52:50.622Z,49.00
2018-07-08T15:55:19.618Z,50.00
2018-07-08T15:57:49.206Z,49.80
2018-07-08T16:00:19.439Z,49.70
2018-07-08T16:02:49.074Z,49.20
2018-07-08T16:05:18.655Z,48.50
2018-07-08T16:07:47.685Z,49.70
2018-07-08T16:10:16.672Z,49.50
2018-07-08T16:12:45.685Z,49.90
2018-07-08T16:15:14.678Z,49.70
2018-07-08T16:17:44.199Z,48.80
2018-07-08T16:20:14.987Z,49.00
2018-07-08T16:22:45.310Z,49.40
2018-07-08T16:25:14.350Z,49.20
2018-07-08T16:27:43.390Z,49.00
2018-07-08T16:30:13.082Z,49.50
2018-07-08T16:32:42.081Z,49.30
2018-07-08T16:35:12.285Z,49.10
2018-07-08T16:37:42.151Z,49.10
2018-07-08T16:40:13.266Z,48.90
2018-07-08T16:42:42.632Z,49.20
2018-07-08T16:45:11.700Z,48.80
2018-07-08T16:47:41.522Z,49.40
2018-07-08T16:50:10.715Z,49.20
2018-07-08T16:52:40.711Z,48.30
2018-07-08T16:55:10.824Z,48.50
2018-07-08T16:57:39.839Z,48.80
2018-07-08T17:00:08.830Z,48.60
2018-07-08T17:02:37.826Z,48.60
2018-07-08T17:05:06.842Z,48.50
2018-07-08T17:07:35.879Z,48.00
2018-07-08T17:10:05.486Z,47.50
2018-07-08T17:12:34.501Z,47.90
2018-07-08T17:15:04.029Z,48.30
2018-07-08T17:17:34.473Z,48.40
2018-07-08T17:20:03.579Z,47.20
2018-07-08T17:22:48.788Z,47.60
2018-07-08T17:25:19.160Z,47.50
2018-07-08T17:27:48.854Z,48.00
2018-07-08T17:30:18.251Z,47.90
2018-07-08T17:32:48.657Z,47.90
2018-07-08T17:35:18.889Z,47.90
2018-07-08T17:37:48.044Z,48.30
2018-07-08T17:40:18.885Z,47.90
2018-07-08T17:42:47.829Z,48.20
2018-07-08T17:45:16.864Z,48.30
2018-07-08T17:47:46.336Z,48.20
2018-07-08T17:50:15.966Z,48.50
2018-07-08T17:52:47.255Z,48.50
2018-07-08T17:55:18.236Z,48.90
2018-07-08T17:57:48.148Z,48.40
2018-07-08T18:00:17.169Z,48.50
2018-07-08T18:02:46.918Z,48.70
2018-07-08T18:05:15.872Z,48.50
2018-07-08T18:07:46.250Z,48.90
2018-07-08T18:10:15.225Z,49.30
2018-07-08T18:12:45.145Z,49.50
2018-07-08T18:15:15.893Z,49.80
2018-07-08T18:17:44.868Z,49.70
2018-07-08T18:20:13.867Z,49.50
2018-07-08T18:22:42.877Z,49.40
2018-07-08T18:25:14.286Z,49.90
2018-07-08T18:27:45.697Z,50.60
2018-07-08T18:30:15.246Z,49.80
2018-07-08T18:32:45.485Z,50.10
2018-07-08T18:35:18.962Z,50.40
2018-07-08T18:37:47.897Z,50.70
2018-07-08T18:40:18.864Z,51.20
2018-07-08T18:42:49.050Z,51.30
2018-07-08T18:45:20.550Z,51.20
2018-07-08T18:47:50.004Z,51.40
2018-07-08T18:50:19.027Z,51.30
2018-07-08T18:52:49.537Z,51.80
2018-07-08T18:55:18.773Z,51.60
2018-07-08T18:57:47.757Z,51.60
2018-07-08T19:00:18.567Z,51.80
2018-07-08T19:02:48.329Z,52.30
2018-07-08T19:05:18.716Z,52.20
2018-07-08T19:07:47.697Z,52.20
2018-07-08T19:10:16.717Z,52.20
2018-07-08T19:12:45.704Z,52.30
2018-07-08T19:15:14.749Z,52.50
2018-07-08T19:17:46.619Z,52.60
2018-07-08T19:20:16.103Z,52.40
2018-07-08T19:22:48.420Z,52.90
2018-07-08T19:25:17.398Z,53.20
2018-07-08T19:27:47.006Z,53.00
2018-07-08T19:30:17.429Z,53.20
2018-07-08T19:32:48.010Z,53.60
2018-07-08T19:35:17.079Z,53.60
2018-07-08T19:37:47.527Z,53.50
2018-07-08T19:40:18.574Z,53.50
2018-07-08T19:42:47.938Z,53.90
2018-07-08T19:45:17.408Z,54.10
2018-07-08T19:47:46.381Z,54.50
2018-07-08T19:50:18.093Z,54.30
2018-07-08T19:52:47.598Z,54.50
2018-07-08T19:55:16.622Z,55.00
2018-07-08T19:57:47.297Z,54.80
2018-07-08T20:00:16.778Z,54.90
2018-07-08T20:02:46.493Z,55.10
2018-07-08T20:05:17.085Z,55.10
2018-07-08T20:07:47.188Z,55.30
2018-07-08T20:10:16.237Z,55.40
2018-07-08T20:12:47.534Z,55.60
2018-07-08T20:15:18.161Z,55.70
2018-07-08T20:17:47.578Z,55.70
2018-07-08T20:20:16.599Z,56.00
2018-07-08T20:22:45.561Z,55.80
2018-07-08T20:25:14.506Z,56.00
2018-07-08T20:27:43.923Z,56.00
2018-07-08T20:30:12.940Z,55.90
2018-07-08T20:32:42.657Z,56.10
2018-07-08T20:35:11.610Z,56.20
2018-07-08T20:37:40.639Z,56.20
2018-07-08T20:40:09.592Z,56.20
2018-07-08T20:42:39.137Z,56.90
2018-07-08T20:45:08.315Z,56.50
2018-07-08T20:47:37.338Z,56.70
2018-07-08T20:50:06.306Z,56.10
2018-07-08T20:52:35.309Z,56.20
2018-07-08T20:55:06.370Z,56.40
2018-07-08T20:57:37.345Z,56.60
2018-07-08T21:00:06.277Z,56.60
2018-07-08T21:02:36.000Z,56.70
2018-07-08T21:05:05.954Z,56.70
2018-07-08T21:07:35.557Z,57.00
2018-07-08T21:10:04.843Z,56.70
2018-07-08T21:12:33.913Z,56.80
2018-07-08T21:15:05.424Z,57.10
2018-07-08T21:17:35.090Z,57.50
2018-07-08T21:20:05.261Z,57.70
2018-07-08T21:22:34.872Z,57.70
2018-07-08T21:25:03.972Z,57.60
2018-07-08T21:27:35.615Z,57.50
2018-07-08T21:30:05.664Z,57.70
2018-07-08T21:32:37.824Z,57.90
2018-07-08T21:35:10.154Z,58.50
2018-07-08T21:37:41.142Z,58.80
2018-07-08T21:40:12.122Z,59.20
2018-07-08T21:42:44.001Z,59.40
2018-07-08T21:45:14.370Z,59.30
2018-07-08T21:47:44.714Z,59.90
2018-07-08T21:50:14.238Z,60.00
2018-07-08T21:52:43.254Z,61.10
2018-07-08T21:55:13.521Z,60.40
2018-07-08T21:57:42.773Z,60.30
2018-07-08T22:00:12.547Z,60.50
2018-07-08T22:02:44.575Z,60.60
2018-07-08T22:05:14.220Z,61.00
2018-07-08T22:07:48.546Z,61.20
2018-07-08T22:10:19.170Z,61.40
2018-07-08T22:12:48.967Z,61.40
2018-07-08T22:15:19.016Z,61.80
2018-07-08T22:17:48.778Z,62.30
2018-07-08T22:20:18.938Z,62.10
2018-07-08T22:22:49.999Z,62.40
2018-07-08T22:25:19.787Z,62.20
2018-07-08T22:27:49.066Z,62.30
2018-07-08T22:30:18.007Z,62.80
2018-07-08T22:32:46.988Z,62.90
2018-07-08T22:35:16.661Z,63.10
2018-07-08T22:37:48.074Z,63.20
2018-07-08T22:40:17.523Z,63.60
2018-07-08T22:42:46.484Z,64.00
2018-07-08T22:45:15.447Z,64.00
2018-07-08T22:47:44.405Z,64.20
2018-07-08T22:50:13.991Z,64.50
2018-07-08T23:10:22.494Z,99.50
2018-07-08T23:12:52.146Z,66.90
2018-07-08T23:15:21.136Z,93.30
2018-07-08T23:17:50.124Z,67.40
2018-07-08T23:20:20.593Z,67.80
2018-07-08T23:23:00.337Z,68.00
2018-07-08T23:25:29.302Z,67.70
2018-07-08T23:28:01.517Z,67.80
2018-07-08T23:30:31.269Z,68.30
2018-07-08T23:33:00.270Z,69.10
2018-07-08T23:35:31.573Z,70.40
2018-07-08T23:38:02.490Z,71.60
2018-07-08T23:40:32.582Z,72.40
2018-07-08T23:43:02.751Z,72.60
2018-07-08T23:45:31.718Z,73.00
2018-07-08T23:48:00.900Z,73.00
2018-07-08T23:50:29.876Z,73.00
2018-07-08T23:52:58.879Z,72.60
2018-07-08T23:55:29.512Z,73.20
2018-07-08T23:57:59.646Z,73.00
